createdAt,value
2023-05-22T00:01:06.865Z,49.05
2023-05-22T00:03:37.453Z,49.70
2023-05-22T00:06:06.314Z,49.21
2023-05-22T00:08:34.478Z,49.54
2023-05-22T00:11:02.574Z,49.26
2023-05-22T00:13:31.008Z,49.11
2023-05-22T00:15:59.211Z,49.23
2023-05-22T00:18:28.128Z,49.48
2023-05-22T00:20:58.161Z,49.39
2023-05-22T00:23:27.999Z,50.07
2023-05-22T00:25:56.075Z,50.08
2023-05-22T00:28:24.221Z,50.21
2023-05-22T00:30:52.365Z,49.98
2023-05-22T00:33:20.606Z,50.01
2023-05-22T00:35:48.954Z,49.86
2023-05-22T00:38:32.309Z,50.42
2023-05-22T00:41:00.548Z,50.85
2023-05-22T00:43:28.885Z,50.73
2023-05-22T00:45:57.216Z,51.19
2023-05-22T00:48:26.062Z,50.49
2023-05-22T00:50:55.987Z,50.76
2023-05-22T00:53:28.179Z,50.65
2023-05-22T00:55:59.829Z,51.12
2023-05-22T00:58:28.641Z,50.58
2023-05-22T01:00:57.705Z,51.21
2023-05-22T01:03:27.697Z,50.81
2023-05-22T01:05:56.607Z,51.00
2023-05-22T01:08:25.025Z,51.07
2023-05-22T01:10:59.427Z,51.32
2023-05-22T01:13:40.477Z,51.23
2023-05-22T01:16:14.389Z,51.78
2023-05-22T01:18:48.215Z,51.11
2023-05-22T01:21:25.195Z,51.07
2023-05-22T01:24:18.644Z,51.14
2023-05-22T01:27:19.728Z,51.59
2023-05-22T01:29:55.996Z,51.12
2023-05-22T01:32:27.162Z,51.81
2023-05-22T01:35:01.239Z,52.26
2023-05-22T01:37:29.830Z,51.80
2023-05-22T01:39:59.074Z,52.05
2023-05-22T01:42:27.637Z,51.73
2023-05-22T01:44:55.799Z,51.85
2023-05-22T01:47:25.385Z,51.44
2023-05-22T01:49:54.187Z,51.86
2023-05-22T01:52:35.757Z,51.82
2023-05-22T01:55:13.556Z,51.71
2023-05-22T01:57:48.600Z,51.30
2023-05-22T02:00:18.634Z,51.39
2023-05-22T02:02:52.790Z,51.80
2023-05-22T02:05:24.635Z,52.26
2023-05-22T02:07:54.823Z,52.18
2023-05-22T02:10:23.960Z,52.78
2023-05-22T02:12:52.268Z,52.98
2023-05-22T02:15:21.366Z,52.88
2023-05-22T02:17:53.314Z,52.54
2023-05-22T02:20:21.681Z,53.05
2023-05-22T02:22:49.927Z,52.58
2023-05-22T02:25:18.653Z,53.23
2023-05-22T02:27:47.849Z,53.52
2023-05-22T02:30:16.731Z,53.52
2023-05-22T02:32:44.972Z,53.72
2023-05-22T02:35:14.615Z,53.90
2023-05-22T02:37:42.767Z,54.26
2023-05-22T02:40:11.786Z,53.92
2023-05-22T02:42:39.887Z,54.19
2023-05-22T02:45:09.514Z,54.10
2023-05-22T02:47:37.791Z,54.11
2023-05-22T02:50:06.669Z,53.39
2023-05-22T02:52:37.216Z,53.83
2023-05-22T02:55:05.970Z,54.35
2023-05-22T02:57:34.080Z,54.45
2023-05-22T03:00:02.169Z,54.36
2023-05-22T03:02:32.590Z,54.33
2023-05-22T03:05:00.825Z,54.89
2023-05-22T03:07:31.897Z,55.24
2023-05-22T03:10:01.469Z,55.69
2023-05-22T03:12:29.586Z,55.19
2023-05-22T03:14:57.758Z,55.89
2023-05-22T03:17:25.898Z,55.56
2023-05-22T03:19:54.099Z,55.32
2023-05-22T03:22:23.321Z,55.49
2023-05-22T03:24:52.456Z,55.35
2023-05-22T03:27:21.957Z,54.84
2023-05-22T03:29:50.190Z,54.69
2023-05-22T03:32:18.371Z,54.20
2023-05-22T03:34:46.483Z,54.49
2023-05-22T03:37:14.624Z,54.35
2023-05-22T03:39:42.845Z,54.47
2023-05-22T03:42:10.968Z,54.62
2023-05-22T03:44:40.586Z,54.30
2023-05-22T03:47:08.776Z,54.42
2023-05-22T03:49:36.930Z,54.64
2023-05-22T03:52:06.075Z,54.56
2023-05-22T03:54:34.244Z,54.61
2023-05-22T03:57:02.367Z,54.95
2023-05-22T03:59:30.494Z,54.47
2023-05-22T04:02:01.347Z,54.92
2023-05-22T04:04:29.857Z,54.76
2023-05-22T04:06:58.308Z,54.59
2023-05-22T04:09:28.368Z,54.85
2023-05-22T04:11:56.568Z,54.76
2023-05-22T04:14:24.808Z,54.92
2023-05-22T04:16:52.956Z,55.32
2023-05-22T04:19:22.649Z,55.30
2023-05-22T04:21:51.160Z,55.09
2023-05-22T04:24:19.440Z,54.85
2023-05-22T04:26:47.984Z,54.80
2023-05-22T04:29:16.572Z,54.79
2023-05-22T04:31:44.884Z,55.25
2023-05-22T04:34:14.087Z,55.34
2023-05-22T04:36:45.376Z,55.42
2023-05-22T04:39:14.354Z,55.29
2023-05-22T04:41:43.022Z,54.79
2023-05-22T04:44:11.218Z,54.96
2023-05-22T04:46:39.620Z,54.31
2023-05-22T04:49:08.594Z,54.32
2023-05-22T04:51:36.769Z,54.03
2023-05-22T04:54:06.401Z,54.04
2023-05-22T04:56:36.778Z,53.63
2023-05-22T04:59:09.348Z,53.88
2023-05-22T05:01:38.062Z,53.90
2023-05-22T05:04:06.614Z,53.71
2023-05-22T05:06:35.945Z,53.54
2023-05-22T05:09:05.694Z,54.35
2023-05-22T05:11:34.226Z,53.94
2023-05-22T05:14:02.464Z,53.87
2023-05-22T05:16:30.765Z,53.88
2023-05-22T05:18:59.011Z,53.96
2023-05-22T05:21:28.137Z,54.12
2023-05-22T05:23:56.327Z,54.01
2023-05-22T05:26:27.318Z,54.16
2023-05-22T05:28:56.804Z,53.70
2023-05-22T05:31:25.164Z,53.64
2023-05-22T05:33:53.348Z,52.33
2023-05-22T05:36:21.469Z,50.27
2023-05-22T05:38:49.588Z,48.79
2023-05-22T05:41:19.161Z,47.38
2023-05-22T05:43:48.730Z,46.08
2023-05-22T05:46:16.974Z,45.07
2023-05-22T05:48:45.279Z,43.44
2023-05-22T05:51:13.546Z,42.53
2023-05-22T05:53:41.954Z,42.05
2023-05-22T05:56:10.525Z,41.53
2023-05-22T05:58:39.232Z,40.07
2023-05-22T06:01:08.727Z,39.47
2023-05-22T06:03:36.953Z,38.92
2023-05-22T06:06:05.725Z,38.47
2023-05-22T06:08:34.558Z,37.70
2023-05-22T06:11:03.512Z,36.69
2023-05-22T06:13:31.689Z,36.51
2023-05-22T06:16:02.811Z,35.55
2023-05-22T06:18:34.554Z,35.58
2023-05-22T06:21:03.088Z,34.81
2023-05-22T06:23:32.401Z,34.82
2023-05-22T06:26:00.708Z,34.31
2023-05-22T06:28:28.891Z,34.14
2023-05-22T06:30:57.314Z,33.46
2023-05-22T06:33:25.522Z,32.18
2023-05-22T06:35:55.589Z,32.21
2023-05-22T06:38:23.777Z,31.49
2023-05-22T06:40:52.012Z,31.65
2023-05-22T06:43:20.150Z,30.54
2023-05-22T06:45:48.341Z,29.74
2023-05-22T06:48:16.949Z,29.19
2023-05-22T06:50:45.127Z,28.40
2023-05-22T06:53:14.709Z,27.66
2023-05-22T06:55:43.134Z,27.59
2023-05-22T06:58:11.343Z,27.27
2023-05-22T07:00:39.887Z,26.94
2023-05-22T07:03:08.238Z,25.98
2023-05-22T07:05:36.862Z,25.55
2023-05-22T07:08:05.334Z,25.26
2023-05-22T07:10:35.126Z,24.99
2023-05-22T07:13:03.329Z,25.08
2023-05-22T07:15:31.509Z,24.23
2023-05-22T07:17:59.705Z,23.76
2023-05-22T07:20:28.021Z,22.57
2023-05-22T07:22:56.183Z,22.27
2023-05-22T07:25:24.266Z,22.03
2023-05-22T07:27:53.824Z,21.59
2023-05-22T07:30:21.968Z,21.40
2023-05-22T07:32:50.116Z,21.34
2023-05-22T07:35:18.407Z,21.11
2023-05-22T07:37:46.502Z,20.95
2023-05-22T07:40:14.821Z,19.87
2023-05-22T07:42:43.137Z,19.43
2023-05-22T07:45:13.180Z,18.49
2023-05-22T07:47:41.460Z,18.34
2023-05-22T07:50:10.530Z,18.33
2023-05-22T07:52:38.670Z,18.28
2023-05-22T07:55:08.668Z,18.01
2023-05-22T07:57:36.927Z,18.46
2023-05-22T08:00:14.046Z,18.53
2023-05-22T08:02:44.040Z,18.61
2023-05-22T08:05:12.616Z,18.36
2023-05-22T08:07:40.976Z,18.18
2023-05-22T08:10:15.278Z,18.07
2023-05-22T08:12:43.396Z,17.79
2023-05-22T08:15:12.902Z,17.14
2023-05-22T08:17:41.227Z,16.65
2023-05-22T08:20:12.108Z,16.21
2023-05-22T08:22:41.428Z,15.92
2023-05-22T08:25:10.633Z,15.77
2023-05-22T08:27:38.817Z,15.42
2023-05-22T08:30:08.419Z,15.00
2023-05-22T08:32:36.656Z,14.78
2023-05-22T08:35:05.260Z,14.38
2023-05-22T08:37:34.776Z,14.44
2023-05-22T08:40:02.886Z,14.42
2023-05-22T08:42:31.096Z,14.09
2023-05-22T08:45:01.205Z,13.85
2023-05-22T08:47:29.777Z,13.23
2023-05-22T08:50:00.484Z,13.18
2023-05-22T08:52:34.547Z,12.76
2023-05-22T08:55:06.287Z,12.23
2023-05-22T08:57:35.528Z,11.93
2023-05-22T09:00:04.412Z,11.42
2023-05-22T09:02:33.485Z,11.19
2023-05-22T09:05:05.450Z,11.42
2023-05-22T09:07:33.663Z,10.81
2023-05-22T09:10:05.434Z,10.76
2023-05-22T09:12:34.021Z,10.34
2023-05-22T09:15:11.359Z,10.20
2023-05-22T09:17:41.737Z,9.76
2023-05-22T09:20:13.419Z,9.89
2023-05-22T09:22:41.658Z,9.63
2023-05-22T09:25:18.816Z,9.68
2023-05-22T09:27:47.347Z,9.44
2023-05-22T09:30:17.609Z,9.25
2023-05-22T09:32:46.977Z,9.29
2023-05-22T09:35:15.505Z,9.07
2023-05-22T09:37:43.764Z,8.82
2023-05-22T09:40:15.065Z,8.98
2023-05-22T09:42:46.094Z,8.43
2023-05-22T09:45:14.296Z,9.07
2023-05-22T09:47:42.471Z,9.43
2023-05-22T09:50:11.303Z,9.16
2023-05-22T09:52:39.583Z,9.24
2023-05-22T09:55:09.381Z,8.98
2023-05-22T09:57:44.033Z,9.23
2023-05-22T10:00:15.607Z,10.02
2023-05-22T10:02:47.054Z,10.13
2023-05-22T10:05:21.778Z,10.97
2023-05-22T10:07:52.037Z,11.37
2023-05-22T10:10:22.728Z,12.35
2023-05-22T10:12:58.601Z,13.24
2023-05-22T10:15:27.965Z,13.44
2023-05-22T10:17:56.516Z,14.17
2023-05-22T10:20:26.620Z,14.80
2023-05-22T10:22:55.763Z,15.48
2023-05-22T10:25:24.271Z,15.62
2023-05-22T10:27:56.115Z,16.36
2023-05-22T10:30:32.789Z,17.42
2023-05-22T10:33:09.284Z,18.25
2023-05-22T10:35:51.283Z,19.08
2023-05-22T10:38:51.834Z,18.54
2023-05-22T10:41:20.356Z,18.95
2023-05-22T10:43:52.144Z,19.31
2023-05-22T10:46:20.416Z,19.24
2023-05-22T10:48:49.874Z,20.07
2023-05-22T10:51:22.106Z,19.91
2023-05-22T10:53:54.301Z,20.30
2023-05-22T10:56:25.294Z,20.47
2023-05-22T10:59:02.834Z,20.50
2023-05-22T11:01:31.141Z,21.15
2023-05-22T11:04:01.040Z,21.18
2023-05-22T11:06:41.160Z,21.06
2023-05-22T11:09:20.015Z,21.79
2023-05-22T11:11:49.006Z,21.75
2023-05-22T11:14:21.593Z,22.31
2023-05-22T11:16:49.947Z,22.55
2023-05-22T11:19:23.431Z,23.16
2023-05-22T11:21:52.318Z,23.60
2023-05-22T11:24:20.629Z,23.60
2023-05-22T11:27:03.610Z,23.60
2023-05-22T11:29:33.959Z,23.24
2023-05-22T11:32:03.289Z,23.42
2023-05-22T11:34:31.401Z,22.78
2023-05-22T11:37:00.361Z,23.50
2023-05-22T11:39:28.575Z,24.08
2023-05-22T11:41:56.671Z,23.74
2023-05-22T11:44:24.858Z,24.39
2023-05-22T11:46:55.019Z,24.11
2023-05-22T11:49:25.353Z,24.54
2023-05-22T11:51:53.711Z,24.42
2023-05-22T11:54:22.281Z,25.06
2023-05-22T11:56:50.383Z,25.46
2023-05-22T11:59:18.564Z,25.27
2023-05-22T12:01:46.760Z,25.92
2023-05-22T12:04:16.358Z,25.77
2023-05-22T12:06:44.635Z,26.32
2023-05-22T12:09:12.831Z,26.47
2023-05-22T12:11:40.970Z,26.25
2023-05-22T12:14:13.299Z,26.37
2023-05-22T12:16:41.757Z,26.05
2023-05-22T12:19:10.786Z,26.26
2023-05-22T12:21:42.104Z,26.05
2023-05-22T12:24:10.436Z,26.42
2023-05-22T12:26:38.880Z,26.44
2023-05-22T12:29:07.035Z,26.18
2023-05-22T12:31:38.813Z,25.63
2023-05-22T12:34:09.079Z,25.19
2023-05-22T12:36:41.320Z,25.29
2023-05-22T12:39:10.568Z,25.10
2023-05-22T12:41:38.991Z,25.25
2023-05-22T12:44:07.495Z,25.11
2023-05-22T12:46:36.071Z,24.83
2023-05-22T12:49:04.288Z,23.93
2023-05-22T12:51:33.792Z,23.39
2023-05-22T12:54:03.891Z,23.50
2023-05-22T12:56:32.732Z,23.08
2023-05-22T12:59:01.110Z,23.56
2023-05-22T13:01:30.495Z,22.98
2023-05-22T13:03:58.706Z,23.87
2023-05-22T13:06:27.973Z,24.15
2023-05-22T13:08:58.840Z,23.52
2023-05-22T13:11:28.482Z,23.41
2023-05-22T13:13:56.583Z,23.58
2023-05-22T13:16:24.793Z,23.57
2023-05-22T13:18:53.104Z,23.07
2023-05-22T13:21:21.266Z,22.88
2023-05-22T13:23:49.354Z,22.84
2023-05-22T13:26:17.443Z,22.70
2023-05-22T13:28:47.123Z,22.88
2023-05-22T13:31:15.292Z,22.42
2023-05-22T13:33:43.495Z,22.44
2023-05-22T13:36:11.709Z,22.04
2023-05-22T13:38:39.903Z,22.41
2023-05-22T13:41:08.159Z,22.27
2023-05-22T13:43:36.333Z,21.59
2023-05-22T13:46:06.013Z,22.43
2023-05-22T13:48:34.133Z,22.53
2023-05-22T13:51:02.302Z,22.87
2023-05-22T13:53:30.431Z,23.71
2023-05-22T13:55:58.507Z,23.79
2023-05-22T13:58:26.581Z,23.16
2023-05-22T14:00:54.636Z,22.70
2023-05-22T14:03:24.365Z,22.90
2023-05-22T14:05:52.619Z,23.04
2023-05-22T14:08:20.824Z,23.25
2023-05-22T14:10:48.927Z,23.01
2023-05-22T14:13:16.994Z,23.19
2023-05-22T14:15:47.012Z,23.26
2023-05-22T14:18:16.605Z,23.45
2023-05-22T14:20:46.948Z,22.93
2023-05-22T14:23:15.306Z,23.71
2023-05-22T14:25:44.426Z,23.62
2023-05-22T14:28:13.258Z,23.20
2023-05-22T14:30:41.746Z,23.75
2023-05-22T14:33:10.103Z,23.52
2023-05-22T14:35:38.480Z,23.07
2023-05-22T14:38:08.211Z,23.11
2023-05-22T14:40:36.400Z,22.52
2023-05-22T14:43:04.613Z,22.88
2023-05-22T14:45:32.971Z,22.89
2023-05-22T14:48:01.313Z,23.12
2023-05-22T14:50:29.543Z,21.94
2023-05-22T14:52:57.831Z,22.51
2023-05-22T14:55:28.281Z,22.79
2023-05-22T14:57:56.976Z,22.54
2023-05-22T15:00:25.328Z,22.50
2023-05-22T15:02:53.601Z,23.07
2023-05-22T15:05:22.142Z,23.11
2023-05-22T15:10:18.961Z,22.56
2023-05-22T15:12:48.500Z,22.77
2023-05-22T15:15:16.705Z,22.90
2023-05-22T15:17:44.943Z,23.03
2023-05-22T15:20:14.079Z,23.48
2023-05-22T15:22:42.381Z,23.77
2023-05-22T15:25:12.527Z,23.75
2023-05-22T15:27:41.047Z,24.10
2023-05-22T15:30:12.248Z,24.43
2023-05-22T15:32:40.672Z,24.20
2023-05-22T15:35:09.508Z,24.47
2023-05-22T15:37:37.817Z,24.92
2023-05-22T15:40:08.268Z,24.35
2023-05-22T15:42:36.767Z,24.63
2023-05-22T15:45:05.365Z,24.28
2023-05-22T15:47:35.127Z,24.30
2023-05-22T15:50:03.913Z,24.67
2023-05-22T15:52:32.058Z,24.74
2023-05-22T15:55:00.177Z,24.81
2023-05-22T15:57:28.902Z,25.27
2023-05-22T15:59:57.262Z,25.22
2023-05-22T16:02:25.609Z,25.71
2023-05-22T16:04:55.302Z,25.48
2023-05-22T16:07:23.539Z,25.10
2023-05-22T16:09:51.730Z,25.48
2023-05-22T16:12:20.153Z,25.24
2023-05-22T16:14:49.472Z,25.56
2023-05-22T16:17:17.799Z,25.37
2023-05-22T16:19:45.979Z,25.50
2023-05-22T16:22:15.812Z,25.03
2023-05-22T16:24:43.984Z,24.85
2023-05-22T16:27:12.108Z,25.32
2023-05-22T16:29:40.295Z,25.35
2023-05-22T16:32:08.823Z,25.34
2023-05-22T16:34:37.031Z,25.48
2023-05-22T16:37:05.443Z,25.45
2023-05-22T16:39:35.196Z,25.50
2023-05-22T16:42:03.526Z,26.21
2023-05-22T16:44:31.671Z,25.95
2023-05-22T16:46:59.877Z,26.17
2023-05-22T16:49:28.136Z,25.83
2023-05-22T16:51:56.626Z,25.69
2023-05-22T16:54:24.836Z,25.96
2023-05-22T16:56:54.523Z,25.99
2023-05-22T16:59:22.800Z,26.15
2023-05-22T17:01:51.198Z,25.75
2023-05-22T17:04:20.794Z,26.45
2023-05-22T17:06:49.878Z,26.73
2023-05-22T17:09:18.137Z,26.89
2023-05-22T17:11:46.322Z,26.59
2023-05-22T17:14:16.077Z,27.47
2023-05-22T17:16:44.420Z,27.70
2023-05-22T17:19:13.683Z,27.81
2023-05-22T17:21:41.967Z,27.81
2023-05-22T17:24:14.647Z,28.01
2023-05-22T17:26:43.454Z,28.31
2023-05-22T17:29:12.167Z,28.86
2023-05-22T17:31:41.832Z,29.26
2023-05-22T17:34:09.973Z,29.35
2023-05-22T17:36:38.333Z,29.64
2023-05-22T17:39:06.681Z,30.14
2023-05-22T17:41:35.014Z,30.77
2023-05-22T17:44:03.190Z,31.20
2023-05-22T17:46:31.621Z,30.79
2023-05-22T17:49:01.404Z,31.90
2023-05-22T17:51:29.653Z,31.60
2023-05-22T17:53:59.182Z,32.69
2023-05-22T17:56:27.875Z,32.74
2023-05-22T17:58:56.179Z,32.38
2023-05-22T18:01:24.696Z,33.02
2023-05-22T18:03:53.079Z,33.52
2023-05-22T18:06:24.288Z,33.58
2023-05-22T18:08:52.730Z,34.34
2023-05-22T18:11:21.152Z,34.32
2023-05-22T18:13:49.421Z,34.90
2023-05-22T18:16:19.605Z,35.14
2023-05-22T18:18:47.904Z,35.04
2023-05-22T18:21:16.088Z,35.02
2023-05-22T18:23:45.707Z,35.31
2023-05-22T18:26:13.725Z,35.49
2023-05-22T18:28:42.597Z,35.87
2023-05-22T18:31:11.158Z,35.72
2023-05-22T18:33:40.310Z,35.72
2023-05-22T18:36:08.555Z,35.61
2023-05-22T18:38:36.670Z,35.69
2023-05-22T18:41:07.384Z,35.73
2023-05-22T18:43:35.554Z,36.06
2023-05-22T18:46:03.818Z,36.11
2023-05-22T18:48:33.300Z,36.17
2023-05-22T18:51:01.620Z,36.42
2023-05-22T18:53:30.057Z,36.55
2023-05-22T18:55:58.267Z,36.55
2023-05-22T18:58:28.025Z,36.82
2023-05-22T19:00:56.611Z,37.41
2023-05-22T19:03:24.852Z,36.61
2023-05-22T19:05:53.375Z,37.14
2023-05-22T19:08:21.491Z,37.16
2023-05-22T19:10:49.651Z,37.21
2023-05-22T19:13:17.867Z,37.23
2023-05-22T19:15:47.748Z,37.11
2023-05-22T19:18:16.054Z,37.22
2023-05-22T19:20:44.275Z,37.37
2023-05-22T19:23:13.783Z,37.24
2023-05-22T19:25:41.896Z,37.50
2023-05-22T19:28:09.999Z,37.68
2023-05-22T19:30:38.252Z,37.84
2023-05-22T19:33:09.011Z,37.90
2023-05-22T19:35:37.954Z,38.32
2023-05-22T19:38:06.101Z,38.34
2023-05-22T19:40:34.179Z,38.54
2023-05-22T19:43:02.567Z,38.64
2023-05-22T19:45:30.883Z,38.63
2023-05-22T19:47:59.216Z,38.71
2023-05-22T19:50:28.848Z,38.95
2023-05-22T19:52:57.277Z,38.99
2023-05-22T19:55:26.105Z,39.26
2023-05-22T19:57:54.219Z,39.44
2023-05-22T20:00:22.793Z,39.90
2023-05-22T20:02:51.694Z,39.90
2023-05-22T20:05:19.893Z,40.47
2023-05-22T20:07:49.499Z,40.72
2023-05-22T20:10:17.649Z,40.55
2023-05-22T20:12:46.001Z,40.33
2023-05-22T20:15:14.988Z,40.48
2023-05-22T20:17:47.888Z,41.34
2023-05-22T20:20:16.374Z,41.95
2023-05-22T20:22:44.688Z,41.79
2023-05-22T20:25:14.725Z,41.63
2023-05-22T20:27:42.942Z,42.19
2023-05-22T20:30:12.699Z,42.21
2023-05-22T20:32:42.710Z,42.49
2023-05-22T20:35:13.142Z,42.89
2023-05-22T20:37:42.067Z,42.52
2023-05-22T20:40:10.981Z,43.31
2023-05-22T20:42:41.183Z,42.66
2023-05-22T20:45:13.627Z,43.06
2023-05-22T20:47:42.813Z,43.79
2023-05-22T20:50:11.575Z,43.95
2023-05-22T20:52:39.657Z,44.15
2023-05-22T20:55:08.725Z,44.05
2023-05-22T20:57:36.825Z,44.04
2023-05-22T21:00:11.217Z,44.39
2023-05-22T21:02:40.116Z,44.01
2023-05-22T21:05:08.970Z,43.27
2023-05-22T21:07:38.398Z,43.31
2023-05-22T21:10:07.333Z,42.93
2023-05-22T21:12:35.451Z,43.34
2023-05-22T21:15:03.578Z,43.34
2023-05-22T21:17:33.076Z,42.81
2023-05-22T21:20:01.339Z,42.75
2023-05-22T21:22:29.561Z,42.74
2023-05-22T21:24:57.789Z,43.08
2023-05-22T21:27:25.864Z,42.60
2023-05-22T21:29:53.982Z,42.49
2023-05-22T21:32:22.165Z,41.98
2023-05-22T21:34:51.666Z,42.36
2023-05-22T21:37:19.722Z,42.32
2023-05-22T21:39:47.822Z,42.70
2023-05-22T21:42:17.049Z,42.11
2023-05-22T21:44:45.099Z,42.58
2023-05-22T21:47:13.185Z,42.49
2023-05-22T21:49:41.386Z,42.77
2023-05-22T21:52:11.672Z,42.61
2023-05-22T21:54:41.164Z,42.60
2023-05-22T21:57:09.342Z,42.33
2023-05-22T21:59:37.719Z,42.86
2023-05-22T22:02:06.187Z,42.37
2023-05-22T22:04:34.448Z,42.39
2023-05-22T22:07:02.536Z,42.20
2023-05-22T22:09:32.297Z,42.36
2023-05-22T22:12:00.798Z,42.54
2023-05-22T22:14:28.870Z,42.26
2023-05-22T22:16:57.012Z,42.34
2023-05-22T22:19:25.533Z,42.17
2023-05-22T22:21:54.220Z,42.14
2023-05-22T22:24:22.509Z,42.66
2023-05-22T22:26:52.908Z,42.76
2023-05-22T22:29:20.965Z,42.98
2023-05-22T22:31:49.198Z,42.67
2023-05-22T22:34:17.312Z,43.04
2023-05-22T22:36:45.743Z,42.93
2023-05-22T22:39:13.976Z,43.36
2023-05-22T22:41:42.166Z,43.04
2023-05-22T22:44:11.840Z,43.66
2023-05-22T22:46:40.198Z,43.60
2023-05-22T22:49:08.897Z,43.58
2023-05-22T22:51:37.180Z,43.33
2023-05-22T22:54:05.590Z,43.63
2023-05-22T22:56:34.328Z,43.56
2023-05-22T22:59:02.518Z,43.37
2023-05-22T23:01:31.989Z,42.90
2023-05-22T23:04:00.158Z,42.98
2023-05-22T23:06:29.780Z,43.32
2023-05-22T23:08:58.927Z,43.90
2023-05-22T23:11:30.279Z,44.19
2023-05-22T23:13:58.480Z,44.41
2023-05-22T23:16:26.978Z,44.28
2023-05-22T23:18:56.712Z,43.88
2023-05-22T23:21:24.894Z,43.48
2023-05-22T23:23:52.963Z,43.59
2023-05-22T23:26:21.079Z,43.73
2023-05-22T23:28:49.185Z,43.56
2023-05-22T23:31:17.660Z,43.75
2023-05-22T23:33:45.876Z,43.70
2023-05-22T23:36:16.268Z,43.63
2023-05-22T23:38:46.330Z,43.59
2023-05-22T23:41:14.796Z,43.62
2023-05-22T23:43:42.882Z,43.44
2023-05-22T23:46:13.375Z,43.33
2023-05-22T23:48:41.650Z,43.54
2023-05-22T23:51:14.656Z,43.68
2023-05-22T23:53:44.194Z,43.82
2023-05-22T23:56:12.472Z,44.51
2023-05-22T23:58:40.680Z,44.91
